sensor_id;sensor_type;location;lat;lon;timestamp;pressure;altitude;pressure_sealevel;temperature;humidity
70458;BME280;57919;56.194;95.716;2022-12-29T00:02:57;99490.59;;;-5.14;69.83
70458;BME280;57919;56.194;95.716;2022-12-29T00:12:59;99495.97;;;-5.20;70.35
70458;BME280;57919;56.194;95.716;2022-12-29T00:23:19;99511.09;;;-5.28;68.67
70458;BME280;57919;56.194;95.716;2022-12-29T00:33:40;99540.97;;;-5.29;68.00
70458;BME280;57919;56.194;95.716;2022-12-29T00:44:01;99559.84;;;-5.50;67.85
70458;BME280;57919;56.194;95.716;2022-12-29T00:54:11;99521.69;;;-5.79;67.07
70458;BME280;57919;56.194;95.716;2022-12-29T01:04:14;99571.69;;;-5.74;67.24
70458;BME280;57919;56.194;95.716;2022-12-29T01:14:17;99608.69;;;-5.82;67.36
70458;BME280;57919;56.194;95.716;2022-12-29T01:24:20;99599.00;;;-5.81;66.87
70458;BME280;57919;56.194;95.716;2022-12-29T01:34:22;99632.56;;;-5.91;67.18
70458;BME280;57919;56.194;95.716;2022-12-29T01:45:16;99654.47;;;-5.89;67.20
70458;BME280;57919;56.194;95.716;2022-12-29T01:55:11;99687.00;;;-5.92;67.37
70458;BME280;57919;56.194;95.716;2022-12-29T02:46:17;99792.69;;;-6.21;67.54
70458;BME280;57919;56.194;95.716;2022-12-29T02:56:22;99771.22;;;-6.62;65.78
70458;BME280;57919;56.194;95.716;2022-12-29T03:16:56;99827.56;;;-6.86;62.89
70458;BME280;57919;56.194;95.716;2022-12-29T03:27:04;99812.91;;;-7.16;64.13
70458;BME280;57919;56.194;95.716;2022-12-29T03:37:20;99847.06;;;-7.13;63.87
70458;BME280;57919;56.194;95.716;2022-12-29T03:47:24;99856.75;;;-7.24;63.56
70458;BME280;57919;56.194;95.716;2022-12-29T03:57:27;99873.41;;;-7.22;63.31
70458;BME280;57919;56.194;95.716;2022-12-29T04:07:34;99875.13;;;-7.18;63.27
70458;BME280;57919;56.194;95.716;2022-12-29T04:17:38;99876.13;;;-7.37;63.08
70458;BME280;57919;56.194;95.716;2022-12-29T04:27:41;99863.63;;;-7.00;62.28
70458;BME280;57919;56.194;95.716;2022-12-29T04:38:03;99912.16;;;-6.32;61.64
70458;BME280;57919;56.194;95.716;2022-12-29T04:48:06;99919.19;;;-6.36;60.77
70458;BME280;57919;56.194;95.716;2022-12-29T04:58:26;99924.34;;;-6.24;60.18
70458;BME280;57919;56.194;95.716;2022-12-29T05:08:29;99931.13;;;-5.98;60.22
70458;BME280;57919;56.194;95.716;2022-12-29T05:18:33;99937.06;;;-5.82;60.45
70458;BME280;57919;56.194;95.716;2022-12-29T05:28:36;99947.47;;;-5.70;60.04
70458;BME280;57919;56.194;95.716;2022-12-29T05:38:47;99931.84;;;-5.87;59.07
70458;BME280;57919;56.194;95.716;2022-12-29T05:48:49;99964.19;;;-5.73;58.02
70458;BME280;57919;56.194;95.716;2022-12-29T05:59:09;99955.94;;;-6.24;57.42
70458;BME280;57919;56.194;95.716;2022-12-29T06:09:12;99992.88;;;-6.33;57.66
70458;BME280;57919;56.194;95.716;2022-12-29T06:19:14;100003.19;;;-6.05;58.05
70458;BME280;57919;56.194;95.716;2022-12-29T06:29:16;100013.75;;;-6.11;57.29
70458;BME280;57919;56.194;95.716;2022-12-29T06:39:19;100025.31;;;-6.29;56.61
70458;BME280;57919;56.194;95.716;2022-12-29T06:49:35;100026.31;;;-6.47;57.03
70458;BME280;57919;56.194;95.716;2022-12-29T06:59:37;100044.00;;;-6.73;56.51
70458;BME280;57919;56.194;95.716;2022-12-29T07:09:39;100037.09;;;-6.93;56.42
70458;BME280;57919;56.194;95.716;2022-12-29T07:19:41;100053.75;;;-6.95;56.60
70458;BME280;57919;56.194;95.716;2022-12-29T07:29:44;100043.38;;;-7.30;55.28
70458;BME280;57919;56.194;95.716;2022-12-29T07:39:46;100066.22;;;-7.49;56.39
70458;BME280;57919;56.194;95.716;2022-12-29T07:49:49;100082.84;;;-7.56;56.90
70458;BME280;57919;56.194;95.716;2022-12-29T07:59:51;100053.97;;;-7.65;57.08
70458;BME280;57919;56.194;95.716;2022-12-29T08:09:53;100083.72;;;-7.45;56.61
70458;BME280;57919;56.194;95.716;2022-12-29T08:19:55;100124.88;;;-7.48;56.63
70458;BME280;57919;56.194;95.716;2022-12-29T08:29:57;100131.03;;;-7.82;56.94
70458;BME280;57919;56.194;95.716;2022-12-29T08:40:01;100144.13;;;-7.97;58.02
70458;BME280;57919;56.194;95.716;2022-12-29T08:50:06;100155.50;;;-8.15;57.71
70458;BME280;57919;56.194;95.716;2022-12-29T09:00:08;100182.56;;;-8.37;58.05
70458;BME280;57919;56.194;95.716;2022-12-29T09:10:11;100188.63;;;-8.59;58.92
70458;BME280;57919;56.194;95.716;2022-12-29T09:20:18;100207.94;;;-8.22;59.11
70458;BME280;57919;56.194;95.716;2022-12-29T09:30:22;100221.91;;;-8.40;58.54
70458;BME280;57919;56.194;95.716;2022-12-29T09:40:30;100237.44;;;-8.79;59.31
70458;BME280;57919;56.194;95.716;2022-12-29T09:50:35;100266.09;;;-9.08;59.64
70458;BME280;57919;56.194;95.716;2022-12-29T10:11:19;100263.75;;;-9.78;60.51
70458;BME280;57919;56.194;95.716;2022-12-29T10:21:39;100291.16;;;-10.24;61.14
70458;BME280;57919;56.194;95.716;2022-12-29T10:31:50;100329.97;;;-10.56;61.17
70458;BME280;57919;56.194;95.716;2022-12-29T10:52:04;100350.41;;;-10.28;61.45
70458;BME280;57919;56.194;95.716;2022-12-29T11:32:29;100394.09;;;-11.75;62.53
70458;BME280;57919;56.194;95.716;2022-12-29T11:42:58;100394.25;;;-12.11;63.58
70458;BME280;57919;56.194;95.716;2022-12-29T11:53:28;100411.47;;;-11.30;63.00
70458;BME280;57919;56.194;95.716;2022-12-29T12:03:40;100413.91;;;-10.91;62.77
70458;BME280;57919;56.194;95.716;2022-12-29T12:13:55;100421.03;;;-10.82;62.62
70458;BME280;57919;56.194;95.716;2022-12-29T12:34:42;100437.69;;;-10.75;62.42
70458;BME280;57919;56.194;95.716;2022-12-29T12:44:58;100448.84;;;-10.86;62.34
70458;BME280;57919;56.194;95.716;2022-12-29T12:55:41;100454.81;;;-10.93;62.31
70458;BME280;57919;56.194;95.716;2022-12-29T13:06:36;100470.88;;;-11.18;62.67
70458;BME280;57919;56.194;95.716;2022-12-29T13:16:16;100453.06;;;-11.40;62.63
70458;BME280;57919;56.194;95.716;2022-12-29T13:37:01;100469.78;;;-11.31;63.12
70458;BME280;57919;56.194;95.716;2022-12-29T13:47:45;100474.88;;;-11.37;63.22
70458;BME280;57919;56.194;95.716;2022-12-29T13:58:19;100483.69;;;-11.32;63.14
70458;BME280;57919;56.194;95.716;2022-12-29T14:08:24;100467.50;;;-11.58;63.01
70458;BME280;57919;56.194;95.716;2022-12-29T14:18:30;100486.34;;;-11.29;63.59
70458;BME280;57919;56.194;95.716;2022-12-29T14:28:47;100501.63;;;-11.03;62.82
70458;BME280;57919;56.194;95.716;2022-12-29T14:38:51;100507.25;;;-11.29;63.45
70458;BME280;57919;56.194;95.716;2022-12-29T14:48:56;100500.16;;;-10.89;62.68
70458;BME280;57919;56.194;95.716;2022-12-29T14:59:03;100512.69;;;-10.71;62.31
70458;BME280;57919;56.194;95.716;2022-12-29T15:10:00;100511.56;;;-10.86;62.09
70458;BME280;57919;56.194;95.716;2022-12-29T15:19:39;100544.88;;;-10.74;62.77
70458;BME280;57919;56.194;95.716;2022-12-29T15:29:45;100562.41;;;-11.12;62.64
70458;BME280;57919;56.194;95.716;2022-12-29T15:39:47;100550.19;;;-11.15;63.28
70458;BME280;57919;56.194;95.716;2022-12-29T15:49:52;100561.44;;;-11.17;63.46
70458;BME280;57919;56.194;95.716;2022-12-29T15:59:58;100556.59;;;-10.99;63.29
70458;BME280;57919;56.194;95.716;2022-12-29T16:10:02;100565.09;;;-11.09;63.54
70458;BME280;57919;56.194;95.716;2022-12-29T16:20:19;100578.13;;;-11.11;63.54
70458;BME280;57919;56.194;95.716;2022-12-29T16:30:24;100555.72;;;-11.42;63.21
70458;BME280;57919;56.194;95.716;2022-12-29T16:40:31;100588.47;;;-11.15;63.33
70458;BME280;57919;56.194;95.716;2022-12-29T16:50:34;100573.78;;;-11.10;63.51
70458;BME280;57919;56.194;95.716;2022-12-29T17:00:37;100559.88;;;-11.90;63.62
70458;BME280;57919;56.194;95.716;2022-12-29T17:10:39;100604.50;;;-11.78;63.66
70458;BME280;57919;56.194;95.716;2022-12-29T17:20:59;100597.28;;;-11.51;64.17
70458;BME280;57919;56.194;95.716;2022-12-29T17:31:03;100595.66;;;-11.46;63.88
70458;BME280;57919;56.194;95.716;2022-12-29T17:41:13;100626.56;;;-11.25;63.25
70458;BME280;57919;56.194;95.716;2022-12-29T17:51:17;100625.72;;;-11.63;63.81
70458;BME280;57919;56.194;95.716;2022-12-29T18:01:20;100652.44;;;-11.35;63.89
70458;BME280;57919;56.194;95.716;2022-12-29T18:11:26;100644.22;;;-11.13;63.88
70458;BME280;57919;56.194;95.716;2022-12-29T18:21:28;100653.56;;;-11.24;64.42
70458;BME280;57919;56.194;95.716;2022-12-29T18:31:31;100637.53;;;-11.00;63.90
70458;BME280;57919;56.194;95.716;2022-12-29T18:41:34;100665.53;;;-10.95;63.78
70458;BME280;57919;56.194;95.716;2022-12-29T18:51:36;100656.00;;;-10.91;63.66
70458;BME280;57919;56.194;95.716;2022-12-29T19:01:37;100657.16;;;-10.79;63.58
70458;BME280;57919;56.194;95.716;2022-12-29T19:11:40;100664.78;;;-10.89;63.40
70458;BME280;57919;56.194;95.716;2022-12-29T19:21:42;100688.25;;;-10.91;63.60
70458;BME280;57919;56.194;95.716;2022-12-29T19:31:45;100690.31;;;-11.15;63.84
70458;BME280;57919;56.194;95.716;2022-12-29T19:41:47;100693.84;;;-11.51;64.02
70458;BME280;57919;56.194;95.716;2022-12-29T19:51:49;100711.97;;;-11.57;63.91
70458;BME280;57919;56.194;95.716;2022-12-29T20:01:51;100715.28;;;-11.64;64.43
70458;BME280;57919;56.194;95.716;2022-12-29T20:11:53;100717.38;;;-11.49;64.09
70458;BME280;57919;56.194;95.716;2022-12-29T20:21:55;100732.06;;;-11.54;63.65
70458;BME280;57919;56.194;95.716;2022-12-29T20:31:57;100732.78;;;-11.60;63.78
70458;BME280;57919;56.194;95.716;2022-12-29T20:41:59;100736.31;;;-11.58;63.75
70458;BME280;57919;56.194;95.716;2022-12-29T20:52:02;100694.69;;;-11.89;64.02
70458;BME280;57919;56.194;95.716;2022-12-29T21:02:05;100731.88;;;-11.96;64.03
70458;BME280;57919;56.194;95.716;2022-12-29T21:12:07;100730.84;;;-12.34;64.24
70458;BME280;57919;56.194;95.716;2022-12-29T21:22:09;100757.88;;;-12.31;63.68
70458;BME280;57919;56.194;95.716;2022-12-29T21:32:11;100732.09;;;-12.52;63.66
70458;BME280;57919;56.194;95.716;2022-12-29T21:42:13;100751.69;;;-12.94;63.69
70458;BME280;57919;56.194;95.716;2022-12-29T21:52:15;100740.13;;;-13.32;63.86
70458;BME280;57919;56.194;95.716;2022-12-29T22:02:18;100769.47;;;-13.36;64.38
70458;BME280;57919;56.194;95.716;2022-12-29T22:12:40;100778.47;;;-13.79;64.46
70458;BME280;57919;56.194;95.716;2022-12-29T22:23:01;100800.63;;;-13.90;64.01
70458;BME280;57919;56.194;95.716;2022-12-29T22:33:03;100810.66;;;-14.25;64.58
70458;BME280;57919;56.194;95.716;2022-12-29T22:43:05;100809.69;;;-14.75;64.29
70458;BME280;57919;56.194;95.716;2022-12-29T22:53:07;100797.34;;;-15.02;64.61
70458;BME280;57919;56.194;95.716;2022-12-29T23:03:09;100836.59;;;-14.95;64.88
70458;BME280;57919;56.194;95.716;2022-12-29T23:13:11;100832.88;;;-14.79;64.79
70458;BME280;57919;56.194;95.716;2022-12-29T23:23:13;100836.59;;;-14.95;64.89
70458;BME280;57919;56.194;95.716;2022-12-29T23:33:15;100855.25;;;-14.83;64.75
70458;BME280;57919;56.194;95.716;2022-12-29T23:43:17;100856.78;;;-14.88;64.73
70458;BME280;57919;56.194;95.716;2022-12-29T23:53:19;100867.38;;;-15.04;64.77
